sensor_id;sensor_type;location;lat;lon;timestamp;P1;durP1;ratioP1;P2;durP2;ratioP2
5776;SDS011;2914;42.668;23.346;2023-02-28T00:00:09;30.70;;;14.83;;
5776;SDS011;2914;42.668;23.346;2023-02-28T00:02:42;25.87;;;14.10;;
5776;SDS011;2914;42.668;23.346;2023-02-28T00:05:11;21.53;;;13.47;;
5776;SDS011;2914;42.668;23.346;2023-02-28T00:07:42;21.40;;;12.90;;
5776;SDS011;2914;42.668;23.346;2023-02-28T00:10:11;27.47;;;12.90;;
5776;SDS011;2914;42.668;23.346;2023-02-28T00:12:44;30.00;;;15.37;;
5776;SDS011;2914;42.668;23.346;2023-02-28T00:17:56;26.70;;;15.10;;
5776;SDS011;2914;42.668;23.346;2023-02-28T00:20:25;30.60;;;15.37;;
5776;SDS011;2914;42.668;23.346;2023-02-28T00:23:03;23.57;;;13.60;;
5776;SDS011;2914;42.668;23.346;2023-02-28T00:25:32;29.90;;;14.07;;
5776;SDS011;2914;42.668;23.346;2023-02-28T00:28:01;25.47;;;14.60;;
5776;SDS011;2914;42.668;23.346;2023-02-28T00:30:30;22.70;;;12.17;;
5776;SDS011;2914;42.668;23.346;2023-02-28T00:32:59;25.40;;;12.90;;
5776;SDS011;2914;42.668;23.346;2023-02-28T00:35:28;21.70;;;13.03;;
5776;SDS011;2914;42.668;23.346;2023-02-28T00:37:57;23.87;;;14.50;;
5776;SDS011;2914;42.668;23.346;2023-02-28T00:40:26;26.47;;;12.53;;
5776;SDS011;2914;42.668;23.346;2023-02-28T00:42:56;20.90;;;13.50;;
5776;SDS011;2914;42.668;23.346;2023-02-28T00:45:25;23.10;;;13.10;;
5776;SDS011;2914;42.668;23.346;2023-02-28T00:47:54;21.00;;;11.50;;
5776;SDS011;2914;42.668;23.346;2023-02-28T00:50:23;19.83;;;12.33;;
5776;SDS011;2914;42.668;23.346;2023-02-28T00:52:53;22.27;;;12.27;;
5776;SDS011;2914;42.668;23.346;2023-02-28T00:55:22;22.70;;;13.27;;
5776;SDS011;2914;42.668;23.346;2023-02-28T00:57:51;19.80;;;13.03;;
5776;SDS011;2914;42.668;23.346;2023-02-28T01:00:20;20.23;;;13.90;;
5776;SDS011;2914;42.668;23.346;2023-02-28T01:02:49;20.80;;;13.70;;
5776;SDS011;2914;42.668;23.346;2023-02-28T01:05:19;26.10;;;13.83;;
5776;SDS011;2914;42.668;23.346;2023-02-28T01:07:48;24.27;;;14.40;;
5776;SDS011;2914;42.668;23.346;2023-02-28T01:10:17;31.03;;;14.70;;
5776;SDS011;2914;42.668;23.346;2023-02-28T01:12:47;25.70;;;15.70;;
5776;SDS011;2914;42.668;23.346;2023-02-28T01:15:16;21.77;;;15.43;;
5776;SDS011;2914;42.668;23.346;2023-02-28T01:17:45;28.77;;;15.47;;
5776;SDS011;2914;42.668;23.346;2023-02-28T01:20:14;30.67;;;15.90;;
5776;SDS011;2914;42.668;23.346;2023-02-28T01:22:44;26.17;;;15.63;;
5776;SDS011;2914;42.668;23.346;2023-02-28T01:25:13;26.20;;;16.70;;
5776;SDS011;2914;42.668;23.346;2023-02-28T01:27:42;29.27;;;16.23;;
5776;SDS011;2914;42.668;23.346;2023-02-28T01:30:12;25.83;;;16.17;;
5776;SDS011;2914;42.668;23.346;2023-02-28T01:32:41;28.30;;;17.20;;
5776;SDS011;2914;42.668;23.346;2023-02-28T01:35:10;28.50;;;18.17;;
5776;SDS011;2914;42.668;23.346;2023-02-28T01:37:39;31.87;;;18.13;;
5776;SDS011;2914;42.668;23.346;2023-02-28T01:40:09;31.80;;;19.83;;
5776;SDS011;2914;42.668;23.346;2023-02-28T01:42:40;32.07;;;18.27;;
5776;SDS011;2914;42.668;23.346;2023-02-28T01:45:19;36.00;;;18.33;;
5776;SDS011;2914;42.668;23.346;2023-02-28T01:47:52;27.67;;;17.47;;
5776;SDS011;2914;42.668;23.346;2023-02-28T01:50:24;27.07;;;17.70;;
5776;SDS011;2914;42.668;23.346;2023-02-28T01:52:57;26.90;;;18.13;;
5776;SDS011;2914;42.668;23.346;2023-02-28T01:55:35;29.30;;;16.47;;
5776;SDS011;2914;42.668;23.346;2023-02-28T01:58:05;30.03;;;15.13;;
5776;SDS011;2914;42.668;23.346;2023-02-28T02:00:35;29.40;;;18.00;;
5776;SDS011;2914;42.668;23.346;2023-02-28T02:03:08;29.70;;;17.13;;
5776;SDS011;2914;42.668;23.346;2023-02-28T02:05:39;28.10;;;16.07;;
5776;SDS011;2914;42.668;23.346;2023-02-28T02:08:11;30.73;;;17.30;;
5776;SDS011;2914;42.668;23.346;2023-02-28T02:10:43;28.07;;;16.20;;
5776;SDS011;2914;42.668;23.346;2023-02-28T02:13:20;28.37;;;16.57;;
5776;SDS011;2914;42.668;23.346;2023-02-28T02:16:06;29.97;;;16.33;;
5776;SDS011;2914;42.668;23.346;2023-02-28T02:18:40;31.60;;;17.80;;
5776;SDS011;2914;42.668;23.346;2023-02-28T02:24:47;28.93;;;17.30;;
5776;SDS011;2914;42.668;23.346;2023-02-28T02:27:41;28.17;;;16.50;;
5776;SDS011;2914;42.668;23.346;2023-02-28T02:33:34;28.63;;;16.30;;
5776;SDS011;2914;42.668;23.346;2023-02-28T02:36:19;31.83;;;16.43;;
5776;SDS011;2914;42.668;23.346;2023-02-28T02:38:52;34.33;;;17.20;;
5776;SDS011;2914;42.668;23.346;2023-02-28T02:41:24;25.93;;;15.60;;
5776;SDS011;2914;42.668;23.346;2023-02-28T02:43:57;29.50;;;16.83;;
5776;SDS011;2914;42.668;23.346;2023-02-28T02:46:29;34.47;;;17.20;;
5776;SDS011;2914;42.668;23.346;2023-02-28T02:49:02;24.83;;;16.70;;
5776;SDS011;2914;42.668;23.346;2023-02-28T02:51:34;31.20;;;17.17;;
5776;SDS011;2914;42.668;23.346;2023-02-28T02:54:12;29.43;;;17.07;;
5776;SDS011;2914;42.668;23.346;2023-02-28T02:56:38;28.67;;;17.10;;
5776;SDS011;2914;42.668;23.346;2023-02-28T02:59:10;32.27;;;18.33;;
5776;SDS011;2914;42.668;23.346;2023-02-28T03:01:41;33.80;;;19.20;;
5776;SDS011;2914;42.668;23.346;2023-02-28T03:04:12;37.07;;;17.73;;
5776;SDS011;2914;42.668;23.346;2023-02-28T03:06:42;39.20;;;19.97;;
5776;SDS011;2914;42.668;23.346;2023-02-28T03:09:11;30.20;;;19.03;;
5776;SDS011;2914;42.668;23.346;2023-02-28T03:11:41;31.83;;;18.30;;
5776;SDS011;2914;42.668;23.346;2023-02-28T03:14:20;45.67;;;17.67;;
5776;SDS011;2914;42.668;23.346;2023-02-28T03:16:58;31.20;;;18.27;;
5776;SDS011;2914;42.668;23.346;2023-02-28T03:19:33;34.00;;;20.10;;
5776;SDS011;2914;42.668;23.346;2023-02-28T03:22:14;29.67;;;17.60;;
5776;SDS011;2914;42.668;23.346;2023-02-28T03:24:49;34.97;;;19.70;;
5776;SDS011;2914;42.668;23.346;2023-02-28T03:27:23;42.97;;;18.87;;
5776;SDS011;2914;42.668;23.346;2023-02-28T03:29:57;34.80;;;18.33;;
5776;SDS011;2914;42.668;23.346;2023-02-28T03:32:28;36.73;;;19.10;;
5776;SDS011;2914;42.668;23.346;2023-02-28T03:35:02;36.80;;;20.00;;
5776;SDS011;2914;42.668;23.346;2023-02-28T03:37:36;37.87;;;21.00;;
5776;SDS011;2914;42.668;23.346;2023-02-28T03:40:08;34.60;;;20.43;;
5776;SDS011;2914;42.668;23.346;2023-02-28T03:42:44;34.07;;;19.63;;
5776;SDS011;2914;42.668;23.346;2023-02-28T03:45:16;35.10;;;20.37;;
5776;SDS011;2914;42.668;23.346;2023-02-28T03:47:49;37.60;;;21.10;;
5776;SDS011;2914;42.668;23.346;2023-02-28T03:50:21;37.23;;;20.73;;
5776;SDS011;2914;42.668;23.346;2023-02-28T03:52:53;37.47;;;19.90;;
5776;SDS011;2914;42.668;23.346;2023-02-28T03:55:27;35.87;;;20.40;;
5776;SDS011;2914;42.668;23.346;2023-02-28T03:58:00;40.43;;;20.20;;
5776;SDS011;2914;42.668;23.346;2023-02-28T04:00:31;47.20;;;22.43;;
5776;SDS011;2914;42.668;23.346;2023-02-28T04:03:03;47.77;;;23.33;;
5776;SDS011;2914;42.668;23.346;2023-02-28T04:05:33;78.17;;;23.87;;
5776;SDS011;2914;42.668;23.346;2023-02-28T04:08:13;98.40;;;23.07;;
5776;SDS011;2914;42.668;23.346;2023-02-28T04:10:43;51.73;;;22.77;;
5776;SDS011;2914;42.668;23.346;2023-02-28T04:13:13;43.90;;;21.17;;
5776;SDS011;2914;42.668;23.346;2023-02-28T04:15:43;41.43;;;20.47;;
5776;SDS011;2914;42.668;23.346;2023-02-28T04:18:12;40.17;;;20.40;;
5776;SDS011;2914;42.668;23.346;2023-02-28T04:20:41;48.27;;;19.90;;
5776;SDS011;2914;42.668;23.346;2023-02-28T04:23:10;98.50;;;22.37;;
5776;SDS011;2914;42.668;23.346;2023-02-28T04:25:39;34.00;;;17.97;;
5776;SDS011;2914;42.668;23.346;2023-02-28T04:28:08;46.87;;;20.33;;
5776;SDS011;2914;42.668;23.346;2023-02-28T04:30:38;38.63;;;20.07;;
5776;SDS011;2914;42.668;23.346;2023-02-28T04:33:07;38.43;;;22.20;;
5776;SDS011;2914;42.668;23.346;2023-02-28T04:38:18;100.63;;;21.97;;
5776;SDS011;2914;42.668;23.346;2023-02-28T04:40:47;48.73;;;18.90;;
5776;SDS011;2914;42.668;23.346;2023-02-28T04:43:31;193.10;;;21.27;;
5776;SDS011;2914;42.668;23.346;2023-02-28T04:46:01;62.50;;;21.00;;
5776;SDS011;2914;42.668;23.346;2023-02-28T04:48:32;53.40;;;21.67;;
5776;SDS011;2914;42.668;23.346;2023-02-28T04:51:03;82.10;;;23.43;;
5776;SDS011;2914;42.668;23.346;2023-02-28T04:53:34;38.90;;;20.13;;
5776;SDS011;2914;42.668;23.346;2023-02-28T04:56:03;69.07;;;23.00;;
5776;SDS011;2914;42.668;23.346;2023-02-28T04:58:34;86.43;;;22.87;;
5776;SDS011;2914;42.668;23.346;2023-02-28T05:01:04;69.43;;;24.77;;
5776;SDS011;2914;42.668;23.346;2023-02-28T05:03:37;78.30;;;24.13;;
5776;SDS011;2914;42.668;23.346;2023-02-28T05:06:07;123.80;;;24.23;;
5776;SDS011;2914;42.668;23.346;2023-02-28T05:08:45;51.13;;;25.40;;
5776;SDS011;2914;42.668;23.346;2023-02-28T05:13:58;83.33;;;25.10;;
5776;SDS011;2914;42.668;23.346;2023-02-28T05:16:27;87.03;;;27.87;;
5776;SDS011;2914;42.668;23.346;2023-02-28T05:18:57;94.57;;;34.53;;
5776;SDS011;2914;42.668;23.346;2023-02-28T05:21:27;97.13;;;25.27;;
5776;SDS011;2914;42.668;23.346;2023-02-28T05:23:59;58.53;;;23.47;;
5776;SDS011;2914;42.668;23.346;2023-02-28T05:26:30;56.13;;;26.50;;
5776;SDS011;2914;42.668;23.346;2023-02-28T05:29:01;51.33;;;25.47;;
5776;SDS011;2914;42.668;23.346;2023-02-28T05:31:31;76.33;;;27.47;;
5776;SDS011;2914;42.668;23.346;2023-02-28T05:34:00;52.90;;;25.17;;
5776;SDS011;2914;42.668;23.346;2023-02-28T05:36:31;56.83;;;26.30;;
5776;SDS011;2914;42.668;23.346;2023-02-28T05:39:00;53.07;;;26.50;;
5776;SDS011;2914;42.668;23.346;2023-02-28T05:41:30;62.67;;;25.27;;
5776;SDS011;2914;42.668;23.346;2023-02-28T05:44:13;96.53;;;28.60;;
5776;SDS011;2914;42.668;23.346;2023-02-28T05:46:44;66.97;;;25.63;;
5776;SDS011;2914;42.668;23.346;2023-02-28T05:49:13;64.80;;;26.03;;
5776;SDS011;2914;42.668;23.346;2023-02-28T05:51:42;58.47;;;27.00;;
5776;SDS011;2914;42.668;23.346;2023-02-28T05:54:12;60.97;;;26.97;;
5776;SDS011;2914;42.668;23.346;2023-02-28T05:56:47;60.00;;;26.30;;
5776;SDS011;2914;42.668;23.346;2023-02-28T05:59:51;61.47;;;28.77;;
5776;SDS011;2914;42.668;23.346;2023-02-28T06:02:20;63.83;;;31.03;;
5776;SDS011;2914;42.668;23.346;2023-02-28T06:04:50;59.60;;;29.63;;
5776;SDS011;2914;42.668;23.346;2023-02-28T06:07:19;61.40;;;29.10;;
5776;SDS011;2914;42.668;23.346;2023-02-28T06:09:49;55.80;;;26.80;;
5776;SDS011;2914;42.668;23.346;2023-02-28T06:15:00;54.03;;;27.97;;
5776;SDS011;2914;42.668;23.346;2023-02-28T06:17:30;48.43;;;25.23;;
5776;SDS011;2914;42.668;23.346;2023-02-28T06:19:59;66.77;;;27.13;;
5776;SDS011;2914;42.668;23.346;2023-02-28T06:22:30;49.67;;;24.40;;
5776;SDS011;2914;42.668;23.346;2023-02-28T06:24:59;51.03;;;25.30;;
5776;SDS011;2914;42.668;23.346;2023-02-28T06:27:28;60.70;;;26.23;;
5776;SDS011;2914;42.668;23.346;2023-02-28T06:29:58;59.83;;;28.23;;
5776;SDS011;2914;42.668;23.346;2023-02-28T06:32:36;61.70;;;26.20;;
5776;SDS011;2914;42.668;23.346;2023-02-28T06:35:06;53.47;;;26.47;;
5776;SDS011;2914;42.668;23.346;2023-02-28T06:37:36;55.27;;;27.43;;
5776;SDS011;2914;42.668;23.346;2023-02-28T06:40:07;57.77;;;28.13;;
5776;SDS011;2914;42.668;23.346;2023-02-28T06:42:39;61.60;;;27.67;;
5776;SDS011;2914;42.668;23.346;2023-02-28T06:45:11;58.73;;;25.10;;
5776;SDS011;2914;42.668;23.346;2023-02-28T06:47:41;51.43;;;25.97;;
5776;SDS011;2914;42.668;23.346;2023-02-28T06:50:11;58.13;;;29.70;;
5776;SDS011;2914;42.668;23.346;2023-02-28T06:52:46;59.23;;;28.10;;
5776;SDS011;2914;42.668;23.346;2023-02-28T06:55:17;56.73;;;26.80;;
5776;SDS011;2914;42.668;23.346;2023-02-28T06:57:46;59.53;;;21.13;;
5776;SDS011;2914;42.668;23.346;2023-02-28T07:00:17;65.77;;;31.37;;
5776;SDS011;2914;42.668;23.346;2023-02-28T07:02:55;62.70;;;29.03;;
5776;SDS011;2914;42.668;23.346;2023-02-28T07:05:24;54.17;;;25.67;;
5776;SDS011;2914;42.668;23.346;2023-02-28T07:07:53;49.93;;;21.27;;
5776;SDS011;2914;42.668;23.346;2023-02-28T07:10:23;60.40;;;28.03;;
5776;SDS011;2914;42.668;23.346;2023-02-28T07:12:52;52.33;;;28.53;;
5776;SDS011;2914;42.668;23.346;2023-02-28T07:15:21;59.37;;;25.27;;
5776;SDS011;2914;42.668;23.346;2023-02-28T07:17:50;48.27;;;24.57;;
5776;SDS011;2914;42.668;23.346;2023-02-28T07:20:19;39.10;;;23.47;;
5776;SDS011;2914;42.668;23.346;2023-02-28T07:22:49;44.17;;;24.90;;
5776;SDS011;2914;42.668;23.346;2023-02-28T07:25:20;49.57;;;25.70;;
5776;SDS011;2914;42.668;23.346;2023-02-28T07:27:50;44.33;;;25.13;;
5776;SDS011;2914;42.668;23.346;2023-02-28T07:30:20;45.73;;;24.30;;
5776;SDS011;2914;42.668;23.346;2023-02-28T07:32:50;46.40;;;23.03;;
5776;SDS011;2914;42.668;23.346;2023-02-28T07:35:20;46.03;;;23.17;;
5776;SDS011;2914;42.668;23.346;2023-02-28T07:37:50;39.53;;;23.10;;
5776;SDS011;2914;42.668;23.346;2023-02-28T07:40:19;44.00;;;24.87;;
5776;SDS011;2914;42.668;23.346;2023-02-28T07:42:48;43.70;;;24.80;;
5776;SDS011;2914;42.668;23.346;2023-02-28T07:45:18;44.60;;;23.30;;
5776;SDS011;2914;42.668;23.346;2023-02-28T07:47:47;37.10;;;22.87;;
5776;SDS011;2914;42.668;23.346;2023-02-28T07:50:17;44.23;;;22.87;;
5776;SDS011;2914;42.668;23.346;2023-02-28T07:52:46;42.30;;;22.67;;
5776;SDS011;2914;42.668;23.346;2023-02-28T07:55:15;38.30;;;22.30;;
5776;SDS011;2914;42.668;23.346;2023-02-28T07:57:45;45.83;;;22.50;;
5776;SDS011;2914;42.668;23.346;2023-02-28T08:00:14;44.03;;;24.37;;
5776;SDS011;2914;42.668;23.346;2023-02-28T08:02:44;43.23;;;25.20;;
5776;SDS011;2914;42.668;23.346;2023-02-28T08:05:13;38.73;;;21.97;;
5776;SDS011;2914;42.668;23.346;2023-02-28T08:07:42;39.97;;;22.77;;
5776;SDS011;2914;42.668;23.346;2023-02-28T08:10:11;45.40;;;22.73;;
5776;SDS011;2914;42.668;23.346;2023-02-28T08:12:41;37.60;;;22.37;;
5776;SDS011;2914;42.668;23.346;2023-02-28T08:15:10;42.37;;;24.37;;
5776;SDS011;2914;42.668;23.346;2023-02-28T08:17:39;43.03;;;21.87;;
5776;SDS011;2914;42.668;23.346;2023-02-28T08:20:12;41.03;;;24.17;;
5776;SDS011;2914;42.668;23.346;2023-02-28T08:22:41;40.17;;;22.20;;
5776;SDS011;2914;42.668;23.346;2023-02-28T08:25:10;45.40;;;23.90;;
5776;SDS011;2914;42.668;23.346;2023-02-28T08:27:39;37.93;;;21.90;;
5776;SDS011;2914;42.668;23.346;2023-02-28T08:30:10;37.20;;;22.10;;
5776;SDS011;2914;42.668;23.346;2023-02-28T08:32:41;43.37;;;23.13;;
5776;SDS011;2914;42.668;23.346;2023-02-28T08:35:10;47.20;;;25.10;;
5776;SDS011;2914;42.668;23.346;2023-02-28T08:37:39;49.77;;;23.37;;
5776;SDS011;2914;42.668;23.346;2023-02-28T08:40:09;51.97;;;25.80;;
5776;SDS011;2914;42.668;23.346;2023-02-28T08:42:41;47.80;;;24.83;;
5776;SDS011;2914;42.668;23.346;2023-02-28T08:45:11;43.50;;;23.80;;
5776;SDS011;2914;42.668;23.346;2023-02-28T08:47:41;44.70;;;24.30;;
5776;SDS011;2914;42.668;23.346;2023-02-28T08:50:10;49.77;;;23.77;;
5776;SDS011;2914;42.668;23.346;2023-02-28T08:52:42;42.13;;;22.17;;
5776;SDS011;2914;42.668;23.346;2023-02-28T08:55:11;49.53;;;24.57;;
5776;SDS011;2914;42.668;23.346;2023-02-28T08:57:40;45.80;;;22.40;;
5776;SDS011;2914;42.668;23.346;2023-02-28T09:00:12;43.70;;;20.93;;
5776;SDS011;2914;42.668;23.346;2023-02-28T09:02:41;49.77;;;22.17;;
5776;SDS011;2914;42.668;23.346;2023-02-28T09:05:11;52.60;;;26.77;;
5776;SDS011;2914;42.668;23.346;2023-02-28T09:07:40;48.67;;;26.37;;
5776;SDS011;2914;42.668;23.346;2023-02-28T09:10:10;59.57;;;26.70;;
5776;SDS011;2914;42.668;23.346;2023-02-28T09:12:39;36.67;;;22.63;;
5776;SDS011;2914;42.668;23.346;2023-02-28T09:15:09;50.37;;;25.27;;
5776;SDS011;2914;42.668;23.346;2023-02-28T09:17:39;56.03;;;24.53;;
5776;SDS011;2914;42.668;23.346;2023-02-28T09:20:12;49.13;;;25.23;;
5776;SDS011;2914;42.668;23.346;2023-02-28T09:22:43;50.50;;;24.30;;
5776;SDS011;2914;42.668;23.346;2023-02-28T09:25:12;40.97;;;21.30;;
5776;SDS011;2914;42.668;23.346;2023-02-28T09:27:41;48.70;;;23.67;;
5776;SDS011;2914;42.668;23.346;2023-02-28T09:30:12;56.47;;;24.00;;
5776;SDS011;2914;42.668;23.346;2023-02-28T09:32:42;38.47;;;19.00;;
5776;SDS011;2914;42.668;23.346;2023-02-28T09:35:13;43.97;;;19.03;;
5776;SDS011;2914;42.668;23.346;2023-02-28T09:37:42;32.93;;;19.63;;
5776;SDS011;2914;42.668;23.346;2023-02-28T09:40:12;49.23;;;19.07;;
5776;SDS011;2914;42.668;23.346;2023-02-28T09:42:46;53.03;;;17.80;;
5776;SDS011;2914;42.668;23.346;2023-02-28T09:45:20;36.13;;;18.30;;
5776;SDS011;2914;42.668;23.346;2023-02-28T09:47:52;43.87;;;18.13;;
5776;SDS011;2914;42.668;23.346;2023-02-28T09:50:38;39.57;;;18.67;;
5776;SDS011;2914;42.668;23.346;2023-02-28T09:53:13;34.40;;;19.53;;
5776;SDS011;2914;42.668;23.346;2023-02-28T09:55:44;40.83;;;18.30;;
5776;SDS011;2914;42.668;23.346;2023-02-28T09:58:17;34.27;;;16.70;;
5776;SDS011;2914;42.668;23.346;2023-02-28T10:00:49;76.37;;;17.90;;
5776;SDS011;2914;42.668;23.346;2023-02-28T10:03:30;35.03;;;15.10;;
5776;SDS011;2914;42.668;23.346;2023-02-28T10:06:03;34.47;;;16.57;;
5776;SDS011;2914;42.668;23.346;2023-02-28T10:08:37;31.57;;;16.27;;
5776;SDS011;2914;42.668;23.346;2023-02-28T10:11:12;34.13;;;16.30;;
5776;SDS011;2914;42.668;23.346;2023-02-28T10:13:48;32.93;;;14.33;;
5776;SDS011;2914;42.668;23.346;2023-02-28T10:16:21;27.60;;;14.67;;
5776;SDS011;2914;42.668;23.346;2023-02-28T10:18:54;35.20;;;15.30;;
5776;SDS011;2914;42.668;23.346;2023-02-28T10:21:28;31.53;;;15.63;;
5776;SDS011;2914;42.668;23.346;2023-02-28T10:24:02;31.53;;;13.23;;
5776;SDS011;2914;42.668;23.346;2023-02-28T10:26:35;41.23;;;15.23;;
5776;SDS011;2914;42.668;23.346;2023-02-28T10:29:07;32.23;;;15.33;;
5776;SDS011;2914;42.668;23.346;2023-02-28T10:31:37;34.67;;;14.63;;
5776;SDS011;2914;42.668;23.346;2023-02-28T10:34:08;25.20;;;14.00;;
5776;SDS011;2914;42.668;23.346;2023-02-28T10:36:53;21.03;;;11.23;;
5776;SDS011;2914;42.668;23.346;2023-02-28T10:39:35;37.60;;;14.53;;
5776;SDS011;2914;42.668;23.346;2023-02-28T10:42:18;21.43;;;13.17;;
5776;SDS011;2914;42.668;23.346;2023-02-28T10:44:58;34.70;;;14.83;;
5776;SDS011;2914;42.668;23.346;2023-02-28T10:47:41;22.80;;;11.50;;
5776;SDS011;2914;42.668;23.346;2023-02-28T10:50:27;40.93;;;12.87;;
5776;SDS011;2914;42.668;23.346;2023-02-28T10:53:10;27.30;;;13.80;;
5776;SDS011;2914;42.668;23.346;2023-02-28T10:55:47;35.03;;;14.73;;
5776;SDS011;2914;42.668;23.346;2023-02-28T10:58:25;37.47;;;13.63;;
5776;SDS011;2914;42.668;23.346;2023-02-28T11:00:56;31.27;;;13.53;;
5776;SDS011;2914;42.668;23.346;2023-02-28T11:03:30;25.03;;;13.30;;
5776;SDS011;2914;42.668;23.346;2023-02-28T11:06:05;28.97;;;13.70;;
5776;SDS011;2914;42.668;23.346;2023-02-28T11:08:37;39.80;;;15.97;;
5776;SDS011;2914;42.668;23.346;2023-02-28T11:11:26;35.83;;;15.03;;
5776;SDS011;2914;42.668;23.346;2023-02-28T11:14:02;47.17;;;13.80;;
5776;SDS011;2914;42.668;23.346;2023-02-28T11:16:39;45.90;;;14.63;;
5776;SDS011;2914;42.668;23.346;2023-02-28T11:19:16;37.20;;;13.80;;
5776;SDS011;2914;42.668;23.346;2023-02-28T11:21:48;30.67;;;15.30;;
5776;SDS011;2914;42.668;23.346;2023-02-28T11:24:22;40.53;;;15.10;;
5776;SDS011;2914;42.668;23.346;2023-02-28T11:26:53;36.20;;;16.07;;
5776;SDS011;2914;42.668;23.346;2023-02-28T11:29:23;34.40;;;13.00;;
5776;SDS011;2914;42.668;23.346;2023-02-28T11:32:16;27.90;;;13.17;;
5776;SDS011;2914;42.668;23.346;2023-02-28T11:34:41;36.23;;;13.53;;
5776;SDS011;2914;42.668;23.346;2023-02-28T11:37:12;23.47;;;13.43;;
5776;SDS011;2914;42.668;23.346;2023-02-28T11:39:43;21.30;;;10.57;;
5776;SDS011;2914;42.668;23.346;2023-02-28T11:42:23;29.77;;;13.20;;
5776;SDS011;2914;42.668;23.346;2023-02-28T11:45:04;28.53;;;13.83;;
5776;SDS011;2914;42.668;23.346;2023-02-28T11:47:38;34.27;;;14.63;;
5776;SDS011;2914;42.668;23.346;2023-02-28T11:50:22;33.07;;;14.60;;
5776;SDS011;2914;42.668;23.346;2023-02-28T11:52:59;30.20;;;15.70;;
5776;SDS011;2914;42.668;23.346;2023-02-28T11:55:30;44.67;;;16.83;;
5776;SDS011;2914;42.668;23.346;2023-02-28T12:01:24;27.07;;;16.03;;
5776;SDS011;2914;42.668;23.346;2023-02-28T12:04:00;40.80;;;16.07;;
5776;SDS011;2914;42.668;23.346;2023-02-28T12:06:33;41.43;;;16.40;;
5776;SDS011;2914;42.668;23.346;2023-02-28T12:09:11;27.80;;;14.40;;
5776;SDS011;2914;42.668;23.346;2023-02-28T12:11:47;33.80;;;15.90;;
5776;SDS011;2914;42.668;23.346;2023-02-28T12:14:25;31.03;;;15.27;;
5776;SDS011;2914;42.668;23.346;2023-02-28T12:17:00;44.40;;;16.13;;
5776;SDS011;2914;42.668;23.346;2023-02-28T12:19:35;30.90;;;13.77;;
5776;SDS011;2914;42.668;23.346;2023-02-28T12:22:12;30.93;;;14.90;;
5776;SDS011;2914;42.668;23.346;2023-02-28T12:25:18;26.80;;;16.17;;
5776;SDS011;2914;42.668;23.346;2023-02-28T12:27:53;29.07;;;15.23;;
5776;SDS011;2914;42.668;23.346;2023-02-28T12:30:23;25.27;;;13.50;;
5776;SDS011;2914;42.668;23.346;2023-02-28T12:32:55;30.87;;;15.27;;
5776;SDS011;2914;42.668;23.346;2023-02-28T12:35:28;26.10;;;15.10;;
5776;SDS011;2914;42.668;23.346;2023-02-28T12:38:01;26.57;;;14.97;;
5776;SDS011;2914;42.668;23.346;2023-02-28T12:40:33;33.73;;;16.30;;
5776;SDS011;2914;42.668;23.346;2023-02-28T12:43:16;32.27;;;14.53;;
5776;SDS011;2914;42.668;23.346;2023-02-28T12:45:48;38.40;;;14.63;;
5776;SDS011;2914;42.668;23.346;2023-02-28T12:48:22;28.80;;;12.20;;
5776;SDS011;2914;42.668;23.346;2023-02-28T12:50:53;27.37;;;13.40;;
5776;SDS011;2914;42.668;23.346;2023-02-28T12:53:25;25.03;;;13.87;;
5776;SDS011;2914;42.668;23.346;2023-02-28T12:55:57;23.10;;;11.90;;
5776;SDS011;2914;42.668;23.346;2023-02-28T12:58:34;30.60;;;11.50;;
5776;SDS011;2914;42.668;23.346;2023-02-28T13:01:10;30.13;;;13.57;;
5776;SDS011;2914;42.668;23.346;2023-02-28T13:03:48;31.67;;;13.87;;
5776;SDS011;2914;42.668;23.346;2023-02-28T13:06:30;31.73;;;12.83;;
5776;SDS011;2914;42.668;23.346;2023-02-28T13:09:10;28.20;;;11.30;;
5776;SDS011;2914;42.668;23.346;2023-02-28T13:11:42;27.13;;;13.07;;
5776;SDS011;2914;42.668;23.346;2023-02-28T13:14:25;37.63;;;13.20;;
5776;SDS011;2914;42.668;23.346;2023-02-28T13:16:58;21.83;;;11.40;;
5776;SDS011;2914;42.668;23.346;2023-02-28T13:19:31;39.43;;;15.23;;
5776;SDS011;2914;42.668;23.346;2023-02-28T13:22:03;28.03;;;12.80;;
5776;SDS011;2914;42.668;23.346;2023-02-28T13:24:53;28.37;;;15.17;;
5776;SDS011;2914;42.668;23.346;2023-02-28T13:27:24;26.90;;;12.10;;
5776;SDS011;2914;42.668;23.346;2023-02-28T13:33:24;28.90;;;12.27;;
5776;SDS011;2914;42.668;23.346;2023-02-28T13:36:06;28.90;;;12.97;;
5776;SDS011;2914;42.668;23.346;2023-02-28T13:38:38;41.03;;;13.90;;
5776;SDS011;2914;42.668;23.346;2023-02-28T13:44:13;34.37;;;13.47;;
5776;SDS011;2914;42.668;23.346;2023-02-28T13:49:52;28.90;;;11.60;;
5776;SDS011;2914;42.668;23.346;2023-02-28T13:52:24;29.13;;;11.57;;
5776;SDS011;2914;42.668;23.346;2023-02-28T13:54:59;31.73;;;11.90;;
5776;SDS011;2914;42.668;23.346;2023-02-28T13:57:44;22.57;;;11.60;;
5776;SDS011;2914;42.668;23.346;2023-02-28T14:00:23;28.70;;;12.30;;
5776;SDS011;2914;42.668;23.346;2023-02-28T14:03:10;27.20;;;13.00;;
5776;SDS011;2914;42.668;23.346;2023-02-28T14:05:43;22.60;;;11.77;;
5776;SDS011;2914;42.668;23.346;2023-02-28T14:08:13;47.83;;;12.53;;
5776;SDS011;2914;42.668;23.346;2023-02-28T14:10:47;22.80;;;11.27;;
5776;SDS011;2914;42.668;23.346;2023-02-28T14:13:37;32.27;;;11.60;;
5776;SDS011;2914;42.668;23.346;2023-02-28T14:16:11;25.50;;;10.60;;
5776;SDS011;2914;42.668;23.346;2023-02-28T14:18:47;28.10;;;12.57;;
5776;SDS011;2914;42.668;23.346;2023-02-28T14:21:31;33.73;;;12.33;;
5776;SDS011;2914;42.668;23.346;2023-02-28T14:24:10;41.43;;;13.33;;
5776;SDS011;2914;42.668;23.346;2023-02-28T14:27:26;28.17;;;12.10;;
5776;SDS011;2914;42.668;23.346;2023-02-28T14:30:23;27.60;;;13.50;;
5776;SDS011;2914;42.668;23.346;2023-02-28T14:33:14;24.40;;;11.67;;
5776;SDS011;2914;42.668;23.346;2023-02-28T14:36:01;45.03;;;12.10;;
5776;SDS011;2914;42.668;23.346;2023-02-28T14:38:37;24.50;;;11.57;;
5776;SDS011;2914;42.668;23.346;2023-02-28T14:41:15;22.60;;;11.50;;
5776;SDS011;2914;42.668;23.346;2023-02-28T14:43:54;22.03;;;11.60;;
5776;SDS011;2914;42.668;23.346;2023-02-28T14:46:26;31.67;;;11.57;;
5776;SDS011;2914;42.668;23.346;2023-02-28T14:48:58;24.30;;;11.90;;
5776;SDS011;2914;42.668;23.346;2023-02-28T14:51:27;31.20;;;11.30;;
5776;SDS011;2914;42.668;23.346;2023-02-28T14:53:58;31.67;;;13.93;;
5776;SDS011;2914;42.668;23.346;2023-02-28T14:56:30;31.17;;;11.60;;
5776;SDS011;2914;42.668;23.346;2023-02-28T14:59:03;26.73;;;8.83;;
5776;SDS011;2914;42.668;23.346;2023-02-28T15:01:34;24.53;;;10.30;;
5776;SDS011;2914;42.668;23.346;2023-02-28T15:04:04;32.93;;;10.73;;
5776;SDS011;2914;42.668;23.346;2023-02-28T15:06:35;18.10;;;10.87;;
5776;SDS011;2914;42.668;23.346;2023-02-28T15:09:08;28.53;;;13.10;;
5776;SDS011;2914;42.668;23.346;2023-02-28T15:11:39;51.90;;;11.77;;
5776;SDS011;2914;42.668;23.346;2023-02-28T15:14:14;27.30;;;12.20;;
5776;SDS011;2914;42.668;23.346;2023-02-28T15:16:47;24.57;;;10.13;;
5776;SDS011;2914;42.668;23.346;2023-02-28T15:19:21;34.10;;;11.80;;
5776;SDS011;2914;42.668;23.346;2023-02-28T15:21:54;31.53;;;11.70;;
5776;SDS011;2914;42.668;23.346;2023-02-28T15:24:29;30.20;;;9.47;;
5776;SDS011;2914;42.668;23.346;2023-02-28T15:27:06;18.13;;;8.10;;
5776;SDS011;2914;42.668;23.346;2023-02-28T15:29:43;19.13;;;9.07;;
5776;SDS011;2914;42.668;23.346;2023-02-28T15:32:26;18.60;;;8.53;;
5776;SDS011;2914;42.668;23.346;2023-02-28T15:34:57;26.27;;;9.90;;
5776;SDS011;2914;42.668;23.346;2023-02-28T15:37:33;17.57;;;8.83;;
5776;SDS011;2914;42.668;23.346;2023-02-28T15:40:12;17.33;;;9.87;;